Skip Navigation Links Skip Navigation Links

Current Weather

Mc Carran Intl, Las Vegas, Nev.

For information only: do not use for flight planning or navigation.
Latest weather
Observation time Monday, September 16, 2019 11:56 PM PDT
Local time Tuesday, September 17, 2019 12:05 AM PDT
Flight conditions Visual Meteorological Conditions
Winds
Wind direction Southwest (220°)
Wind speed 18 mph
Wind gusting to 26 mph
Peak wind speed 31 mph, 11:02 PM
Peak wind direction Southwest (220°)
Visibility 10 mi.
Sky condition
Ceiling 22,000 ft. broken clouds
Cloud layer few clouds 16,000 ft.
Cloud layer broken clouds 22,000 ft.
Temperature 82°F
Dewpoint 29°F
Altimeter 29.77 in.Hg
Derived measurements
Relative humidity 14%
Heat index 82°F
Density altitude 3915 ft.
Sea-level pressure 29.69 in.Hg
Remarks
Automated weather observing station with precipitation discriminator.
METAR KLAS 170656Z 22016G23KT 10SM FEW160 BKN220 28/M02 A2977 RMK AO2 PK WND 22027/0602 SLP053 T02781017

Settings

Location code

InnerDrive.Weather 4.0.6770.0 Release CLR 4.0.30319.42000
Copyright ©2018 Inner Drive Technology. All rights reserved. Portions Copyright ©1986-2018 David Braverman.

Find weather

Site navigation


Skip Navigation Links

Place info

Page info

PayPal - The safer, easier way to pay online!

Return home.

Copyright ©2019 Inner Drive Technology. Purveyors of fine, hand-crafted computer software. Page printed 2019-09-17T07:05:57 UTC.